Terminal Aerodrome Forecast
Issued by NWS

Home | Current Version | Previous Version | Text Only | Print | Product List | Glossary On
Versions: 1 2 3 4 5 6 7 8 9 10 11 12 13 14 15 16 17 18 19 20 21 22 23 24 25 26 27
000
FTUS43 KDVN 071727
TAFBRL
TAF
KBRL 071727Z 0718/0818 03011KT 4SM HZ SCT018 BKN035
     FM080000 05006KT 6SM HZ SCT040
     FM080600 07005KT 5SM BR SCT150
     FM081200 07007KT 6SM BR BKN150
     FM081500 06008KT 6SM BR VCSH BKN060 OVC150=

USA.gov is the U.S. government's official web portal to all federal, state and local government web resources and services.